sensor_id;sensor_type;location;lat;lon;timestamp;P1;durP1;ratioP1;P2;durP2;ratioP2
23543;SDS011;11950;51.230;4.012;2023-10-31T00:00:11;26.20;;;15.75;;
23543;SDS011;11950;51.230;4.012;2023-10-31T00:02:38;24.55;;;15.57;;
23543;SDS011;11950;51.230;4.012;2023-10-31T00:05:04;27.00;;;16.25;;
23543;SDS011;11950;51.230;4.012;2023-10-31T00:07:31;24.50;;;15.10;;
23543;SDS011;11950;51.230;4.012;2023-10-31T00:09:57;22.60;;;15.35;;
23543;SDS011;11950;51.230;4.012;2023-10-31T00:12:24;25.70;;;14.93;;
23543;SDS011;11950;51.230;4.012;2023-10-31T00:14:50;20.63;;;14.40;;
23543;SDS011;11950;51.230;4.012;2023-10-31T00:17:16;20.30;;;14.45;;
23543;SDS011;11950;51.230;4.012;2023-10-31T00:19:42;21.50;;;13.25;;
23543;SDS011;11950;51.230;4.012;2023-10-31T00:22:10;21.73;;;13.43;;
23543;SDS011;11950;51.230;4.012;2023-10-31T00:24:36;22.40;;;13.85;;
23543;SDS011;11950;51.230;4.012;2023-10-31T00:27:02;20.83;;;13.65;;
23543;SDS011;11950;51.230;4.012;2023-10-31T00:29:28;19.95;;;13.55;;
23543;SDS011;11950;51.230;4.012;2023-10-31T00:31:55;19.52;;;13.68;;
23543;SDS011;11950;51.230;4.012;2023-10-31T00:34:21;20.27;;;13.77;;
23543;SDS011;11950;51.230;4.012;2023-10-31T00:36:47;19.40;;;13.57;;
23543;SDS011;11950;51.230;4.012;2023-10-31T00:39:13;23.05;;;13.23;;
23543;SDS011;11950;51.230;4.012;2023-10-31T00:41:43;23.50;;;13.45;;
23543;SDS011;11950;51.230;4.012;2023-10-31T00:44:13;21.20;;;13.00;;
23543;SDS011;11950;51.230;4.012;2023-10-31T00:46:39;22.27;;;13.20;;
23543;SDS011;11950;51.230;4.012;2023-10-31T00:49:06;18.15;;;13.18;;
23543;SDS011;11950;51.230;4.012;2023-10-31T00:51:32;21.85;;;13.75;;
23543;SDS011;11950;51.230;4.012;2023-10-31T00:53:58;22.10;;;13.02;;
23543;SDS011;11950;51.230;4.012;2023-10-31T00:56:24;25.73;;;13.57;;
23543;SDS011;11950;51.230;4.012;2023-10-31T00:58:51;23.90;;;13.63;;
23543;SDS011;11950;51.230;4.012;2023-10-31T01:01:17;21.92;;;12.60;;
23543;SDS011;11950;51.230;4.012;2023-10-31T01:03:43;22.77;;;13.13;;
23543;SDS011;11950;51.230;4.012;2023-10-31T01:06:10;19.58;;;12.32;;
23543;SDS011;11950;51.230;4.012;2023-10-31T01:08:36;20.60;;;12.85;;
23543;SDS011;11950;51.230;4.012;2023-10-31T01:11:02;18.70;;;12.70;;
23543;SDS011;11950;51.230;4.012;2023-10-31T01:13:28;21.95;;;12.65;;
23543;SDS011;11950;51.230;4.012;2023-10-31T01:15:55;21.13;;;12.00;;
23543;SDS011;11950;51.230;4.012;2023-10-31T01:18:22;22.45;;;12.35;;
23543;SDS011;11950;51.230;4.012;2023-10-31T01:20:48;19.27;;;12.43;;
23543;SDS011;11950;51.230;4.012;2023-10-31T01:23:14;16.17;;;11.32;;
23543;SDS011;11950;51.230;4.012;2023-10-31T01:25:40;18.13;;;12.13;;
23543;SDS011;11950;51.230;4.012;2023-10-31T01:28:07;16.67;;;11.65;;
23543;SDS011;11950;51.230;4.012;2023-10-31T01:30:33;19.45;;;11.30;;
23543;SDS011;11950;51.230;4.012;2023-10-31T01:32:59;17.25;;;12.43;;
23543;SDS011;11950;51.230;4.012;2023-10-31T01:35:25;17.23;;;11.55;;
23543;SDS011;11950;51.230;4.012;2023-10-31T01:37:52;18.20;;;11.73;;
23543;SDS011;11950;51.230;4.012;2023-10-31T01:40:18;21.38;;;12.77;;
23543;SDS011;11950;51.230;4.012;2023-10-31T01:42:44;17.15;;;11.48;;
23543;SDS011;11950;51.230;4.012;2023-10-31T01:45:10;16.35;;;10.75;;
23543;SDS011;11950;51.230;4.012;2023-10-31T01:47:37;16.95;;;10.25;;
23543;SDS011;11950;51.230;4.012;2023-10-31T01:50:05;14.73;;;10.00;;
23543;SDS011;11950;51.230;4.012;2023-10-31T01:52:32;14.13;;;9.35;;
23543;SDS011;11950;51.230;4.012;2023-10-31T01:55:02;13.35;;;8.15;;
23543;SDS011;11950;51.230;4.012;2023-10-31T01:57:29;11.13;;;7.85;;
23543;SDS011;11950;51.230;4.012;2023-10-31T01:59:55;12.20;;;7.88;;
23543;SDS011;11950;51.230;4.012;2023-10-31T02:02:22;8.80;;;6.85;;
23543;SDS011;11950;51.230;4.012;2023-10-31T02:04:50;9.43;;;6.63;;
23543;SDS011;11950;51.230;4.012;2023-10-31T02:07:16;11.32;;;6.47;;
23543;SDS011;11950;51.230;4.012;2023-10-31T02:09:43;9.68;;;6.30;;
23543;SDS011;11950;51.230;4.012;2023-10-31T02:12:09;15.43;;;6.80;;
23543;SDS011;11950;51.230;4.012;2023-10-31T02:14:35;8.35;;;7.00;;
23543;SDS011;11950;51.230;4.012;2023-10-31T02:17:02;10.88;;;6.63;;
23543;SDS011;11950;51.230;4.012;2023-10-31T02:19:28;7.82;;;6.45;;
23543;SDS011;11950;51.230;4.012;2023-10-31T02:21:55;9.98;;;7.05;;
23543;SDS011;11950;51.230;4.012;2023-10-31T02:24:21;12.60;;;7.47;;
23543;SDS011;11950;51.230;4.012;2023-10-31T02:26:47;9.65;;;7.72;;
23543;SDS011;11950;51.230;4.012;2023-10-31T02:29:13;14.63;;;9.82;;
23543;SDS011;11950;51.230;4.012;2023-10-31T02:31:39;16.48;;;9.85;;
23543;SDS011;11950;51.230;4.012;2023-10-31T02:34:06;15.43;;;10.38;;
23543;SDS011;11950;51.230;4.012;2023-10-31T02:36:32;17.15;;;10.48;;
23543;SDS011;11950;51.230;4.012;2023-10-31T02:38:59;14.25;;;10.07;;
23543;SDS011;11950;51.230;4.012;2023-10-31T02:41:28;13.50;;;8.82;;
23543;SDS011;11950;51.230;4.012;2023-10-31T02:43:54;18.25;;;8.27;;
23543;SDS011;11950;51.230;4.012;2023-10-31T02:46:21;12.57;;;7.60;;
23543;SDS011;11950;51.230;4.012;2023-10-31T02:48:47;10.70;;;7.18;;
23543;SDS011;11950;51.230;4.012;2023-10-31T02:51:13;8.88;;;6.32;;
23543;SDS011;11950;51.230;4.012;2023-10-31T02:53:39;10.10;;;6.40;;
23543;SDS011;11950;51.230;4.012;2023-10-31T02:56:06;13.32;;;6.25;;
23543;SDS011;11950;51.230;4.012;2023-10-31T02:58:32;9.85;;;5.43;;
23543;SDS011;11950;51.230;4.012;2023-10-31T03:00:59;10.27;;;5.18;;
23543;SDS011;11950;51.230;4.012;2023-10-31T03:03:25;9.25;;;5.70;;
23543;SDS011;11950;51.230;4.012;2023-10-31T03:05:51;6.60;;;4.75;;
23543;SDS011;11950;51.230;4.012;2023-10-31T03:08:17;8.60;;;5.65;;
23543;SDS011;11950;51.230;4.012;2023-10-31T03:10:47;7.40;;;4.65;;
23543;SDS011;11950;51.230;4.012;2023-10-31T03:13:16;9.50;;;5.57;;
23543;SDS011;11950;51.230;4.012;2023-10-31T03:15:43;8.98;;;5.55;;
23543;SDS011;11950;51.230;4.012;2023-10-31T03:18:09;8.85;;;5.38;;
23543;SDS011;11950;51.230;4.012;2023-10-31T03:20:36;8.15;;;5.53;;
23543;SDS011;11950;51.230;4.012;2023-10-31T03:23:02;6.18;;;4.93;;
23543;SDS011;11950;51.230;4.012;2023-10-31T03:25:29;10.52;;;5.50;;
23543;SDS011;11950;51.230;4.012;2023-10-31T03:27:56;9.45;;;5.97;;
23543;SDS011;11950;51.230;4.012;2023-10-31T03:30:22;7.28;;;6.43;;
23543;SDS011;11950;51.230;4.012;2023-10-31T03:32:48;9.93;;;5.57;;
23543;SDS011;11950;51.230;4.012;2023-10-31T03:35:15;9.00;;;5.57;;
23543;SDS011;11950;51.230;4.012;2023-10-31T03:37:41;7.82;;;4.88;;
23543;SDS011;11950;51.230;4.012;2023-10-31T03:40:08;8.55;;;5.30;;
23543;SDS011;11950;51.230;4.012;2023-10-31T03:42:35;6.65;;;4.80;;
23543;SDS011;11950;51.230;4.012;2023-10-31T03:45:02;7.47;;;4.28;;
23543;SDS011;11950;51.230;4.012;2023-10-31T03:47:28;9.18;;;4.75;;
23543;SDS011;11950;51.230;4.012;2023-10-31T03:49:55;7.38;;;3.83;;
23543;SDS011;11950;51.230;4.012;2023-10-31T03:52:22;6.90;;;3.80;;
23543;SDS011;11950;51.230;4.012;2023-10-31T03:54:48;7.38;;;4.00;;
23543;SDS011;11950;51.230;4.012;2023-10-31T03:57:14;7.20;;;3.22;;
23543;SDS011;11950;51.230;4.012;2023-10-31T03:59:41;7.45;;;3.53;;
23543;SDS011;11950;51.230;4.012;2023-10-31T04:02:07;6.43;;;3.70;;
23543;SDS011;11950;51.230;4.012;2023-10-31T04:04:33;3.92;;;3.17;;
23543;SDS011;11950;51.230;4.012;2023-10-31T04:06:59;7.13;;;3.92;;
23543;SDS011;11950;51.230;4.012;2023-10-31T04:09:25;6.75;;;3.20;;
23543;SDS011;11950;51.230;4.012;2023-10-31T04:11:52;3.97;;;2.83;;
23543;SDS011;11950;51.230;4.012;2023-10-31T04:14:18;4.70;;;2.92;;
23543;SDS011;11950;51.230;4.012;2023-10-31T04:16:44;5.00;;;3.25;;
23543;SDS011;11950;51.230;4.012;2023-10-31T04:19:12;7.07;;;3.65;;
23543;SDS011;11950;51.230;4.012;2023-10-31T04:21:39;5.45;;;2.58;;
23543;SDS011;11950;51.230;4.012;2023-10-31T04:24:06;5.53;;;3.13;;
23543;SDS011;11950;51.230;4.012;2023-10-31T04:26:33;4.13;;;2.60;;
23543;SDS011;11950;51.230;4.012;2023-10-31T04:28:59;6.82;;;2.95;;
23543;SDS011;11950;51.230;4.012;2023-10-31T04:31:25;4.88;;;2.45;;
23543;SDS011;11950;51.230;4.012;2023-10-31T04:33:51;6.97;;;3.50;;
23543;SDS011;11950;51.230;4.012;2023-10-31T04:36:17;8.93;;;2.90;;
23543;SDS011;11950;51.230;4.012;2023-10-31T04:38:44;7.53;;;3.70;;
23543;SDS011;11950;51.230;4.012;2023-10-31T04:41:10;4.75;;;3.05;;
23543;SDS011;11950;51.230;4.012;2023-10-31T04:43:36;6.40;;;3.13;;
23543;SDS011;11950;51.230;4.012;2023-10-31T04:46:02;4.35;;;2.47;;
23543;SDS011;11950;51.230;4.012;2023-10-31T04:48:28;5.15;;;2.67;;
23543;SDS011;11950;51.230;4.012;2023-10-31T04:50:55;4.97;;;3.20;;
23543;SDS011;11950;51.230;4.012;2023-10-31T04:53:22;5.75;;;2.42;;
23543;SDS011;11950;51.230;4.012;2023-10-31T04:55:48;6.65;;;2.58;;
23543;SDS011;11950;51.230;4.012;2023-10-31T04:58:15;5.55;;;2.60;;
23543;SDS011;11950;51.230;4.012;2023-10-31T05:00:41;6.13;;;3.42;;
23543;SDS011;11950;51.230;4.012;2023-10-31T05:03:07;5.13;;;2.92;;
23543;SDS011;11950;51.230;4.012;2023-10-31T05:05:33;6.78;;;3.03;;
23543;SDS011;11950;51.230;4.012;2023-10-31T05:07:59;5.40;;;2.97;;
23543;SDS011;11950;51.230;4.012;2023-10-31T05:10:26;4.95;;;3.17;;
23543;SDS011;11950;51.230;4.012;2023-10-31T05:12:52;6.40;;;3.55;;
23543;SDS011;11950;51.230;4.012;2023-10-31T05:15:18;6.60;;;3.67;;
23543;SDS011;11950;51.230;4.012;2023-10-31T05:17:44;3.70;;;2.78;;
23543;SDS011;11950;51.230;4.012;2023-10-31T05:20:11;5.65;;;3.20;;
23543;SDS011;11950;51.230;4.012;2023-10-31T05:22:37;7.20;;;4.03;;
23543;SDS011;11950;51.230;4.012;2023-10-31T05:25:03;4.63;;;3.47;;
23543;SDS011;11950;51.230;4.012;2023-10-31T05:27:30;7.63;;;3.45;;
23543;SDS011;11950;51.230;4.012;2023-10-31T05:29:57;6.95;;;3.75;;
23543;SDS011;11950;51.230;4.012;2023-10-31T05:32:23;6.78;;;3.30;;
23543;SDS011;11950;51.230;4.012;2023-10-31T05:34:49;7.78;;;3.92;;
23543;SDS011;11950;51.230;4.012;2023-10-31T05:37:16;7.03;;;4.00;;
23543;SDS011;11950;51.230;4.012;2023-10-31T05:39:42;6.57;;;4.55;;
23543;SDS011;11950;51.230;4.012;2023-10-31T05:42:08;8.15;;;4.60;;
23543;SDS011;11950;51.230;4.012;2023-10-31T05:44:34;6.95;;;3.95;;
23543;SDS011;11950;51.230;4.012;2023-10-31T05:47:01;7.10;;;3.95;;
23543;SDS011;11950;51.230;4.012;2023-10-31T05:49:27;5.80;;;4.13;;
23543;SDS011;11950;51.230;4.012;2023-10-31T05:51:53;6.45;;;3.15;;
23543;SDS011;11950;51.230;4.012;2023-10-31T05:54:19;7.28;;;3.42;;
23543;SDS011;11950;51.230;4.012;2023-10-31T05:56:46;4.68;;;3.42;;
23543;SDS011;11950;51.230;4.012;2023-10-31T05:59:12;5.03;;;3.10;;
23543;SDS011;11950;51.230;4.012;2023-10-31T06:01:39;4.80;;;3.28;;
23543;SDS011;11950;51.230;4.012;2023-10-31T06:04:05;4.93;;;3.30;;
23543;SDS011;11950;51.230;4.012;2023-10-31T06:06:32;5.88;;;3.10;;
23543;SDS011;11950;51.230;4.012;2023-10-31T06:08:58;4.85;;;3.42;;
23543;SDS011;11950;51.230;4.012;2023-10-31T06:11:25;4.22;;;2.90;;
23543;SDS011;11950;51.230;4.012;2023-10-31T06:13:52;4.55;;;3.20;;
23543;SDS011;11950;51.230;4.012;2023-10-31T06:16:18;4.53;;;2.75;;
23543;SDS011;11950;51.230;4.012;2023-10-31T06:18:44;6.65;;;3.50;;
23543;SDS011;11950;51.230;4.012;2023-10-31T06:21:10;4.95;;;3.63;;
23543;SDS011;11950;51.230;4.012;2023-10-31T06:23:37;3.17;;;2.78;;
23543;SDS011;11950;51.230;4.012;2023-10-31T06:26:04;5.82;;;3.17;;
23543;SDS011;11950;51.230;4.012;2023-10-31T06:28:30;4.57;;;3.08;;
23543;SDS011;11950;51.230;4.012;2023-10-31T06:31:00;8.38;;;4.22;;
23543;SDS011;11950;51.230;4.012;2023-10-31T06:33:27;5.43;;;4.28;;
23543;SDS011;11950;51.230;4.012;2023-10-31T06:35:53;6.68;;;5.05;;
23543;SDS011;11950;51.230;4.012;2023-10-31T06:38:23;8.63;;;5.68;;
23543;SDS011;11950;51.230;4.012;2023-10-31T06:40:50;11.30;;;7.13;;
23543;SDS011;11950;51.230;4.012;2023-10-31T06:43:18;9.98;;;7.18;;
23543;SDS011;11950;51.230;4.012;2023-10-31T06:45:44;11.73;;;8.15;;
23543;SDS011;11950;51.230;4.012;2023-10-31T06:48:10;15.30;;;8.57;;
23543;SDS011;11950;51.230;4.012;2023-10-31T06:50:36;13.00;;;8.45;;
23543;SDS011;11950;51.230;4.012;2023-10-31T06:53:03;12.95;;;8.18;;
23543;SDS011;11950;51.230;4.012;2023-10-31T06:55:29;15.85;;;9.10;;
23543;SDS011;11950;51.230;4.012;2023-10-31T06:57:55;16.40;;;10.05;;
23543;SDS011;11950;51.230;4.012;2023-10-31T07:00:21;14.93;;;9.10;;
23543;SDS011;11950;51.230;4.012;2023-10-31T07:02:47;15.15;;;9.45;;
23543;SDS011;11950;51.230;4.012;2023-10-31T07:05:14;14.73;;;8.75;;
23543;SDS011;11950;51.230;4.012;2023-10-31T07:07:41;16.13;;;9.50;;
23543;SDS011;11950;51.230;4.012;2023-10-31T07:10:07;13.88;;;8.63;;
23543;SDS011;11950;51.230;4.012;2023-10-31T07:12:33;13.65;;;8.80;;
23543;SDS011;11950;51.230;4.012;2023-10-31T07:15:00;14.88;;;8.98;;
23543;SDS011;11950;51.230;4.012;2023-10-31T07:17:26;15.77;;;8.88;;
23543;SDS011;11950;51.230;4.012;2023-10-31T07:19:52;16.83;;;9.07;;
23543;SDS011;11950;51.230;4.012;2023-10-31T07:22:19;15.02;;;9.07;;
23543;SDS011;11950;51.230;4.012;2023-10-31T07:24:45;20.63;;;9.57;;
23543;SDS011;11950;51.230;4.012;2023-10-31T07:27:11;15.32;;;9.13;;
23543;SDS011;11950;51.230;4.012;2023-10-31T07:29:40;13.95;;;9.00;;
23543;SDS011;11950;51.230;4.012;2023-10-31T07:32:07;15.40;;;8.70;;
23543;SDS011;11950;51.230;4.012;2023-10-31T07:34:34;16.27;;;9.02;;
23543;SDS011;11950;51.230;4.012;2023-10-31T07:37:00;14.48;;;9.05;;
23543;SDS011;11950;51.230;4.012;2023-10-31T07:39:27;15.57;;;9.27;;
23543;SDS011;11950;51.230;4.012;2023-10-31T07:41:53;14.40;;;8.30;;
23543;SDS011;11950;51.230;4.012;2023-10-31T07:44:19;16.85;;;8.95;;
23543;SDS011;11950;51.230;4.012;2023-10-31T07:46:45;14.75;;;9.18;;
23543;SDS011;11950;51.230;4.012;2023-10-31T07:49:12;15.23;;;8.55;;
23543;SDS011;11950;51.230;4.012;2023-10-31T07:51:38;16.98;;;9.52;;
23543;SDS011;11950;51.230;4.012;2023-10-31T07:54:05;16.63;;;9.43;;
23543;SDS011;11950;51.230;4.012;2023-10-31T07:56:32;18.35;;;9.25;;
23543;SDS011;11950;51.230;4.012;2023-10-31T07:59:00;15.20;;;9.13;;
23543;SDS011;11950;51.230;4.012;2023-10-31T08:01:27;14.25;;;8.98;;
23543;SDS011;11950;51.230;4.012;2023-10-31T08:03:53;14.05;;;8.93;;
23543;SDS011;11950;51.230;4.012;2023-10-31T08:06:19;16.52;;;9.55;;
23543;SDS011;11950;51.230;4.012;2023-10-31T08:08:46;15.13;;;9.45;;
23543;SDS011;11950;51.230;4.012;2023-10-31T08:11:12;15.00;;;9.18;;
23543;SDS011;11950;51.230;4.012;2023-10-31T08:13:38;16.98;;;9.35;;
23543;SDS011;11950;51.230;4.012;2023-10-31T08:16:05;13.02;;;8.82;;
23543;SDS011;11950;51.230;4.012;2023-10-31T08:18:32;13.43;;;9.05;;
23543;SDS011;11950;51.230;4.012;2023-10-31T08:20:59;15.45;;;8.65;;
23543;SDS011;11950;51.230;4.012;2023-10-31T08:23:25;13.48;;;7.85;;
23543;SDS011;11950;51.230;4.012;2023-10-31T08:25:51;11.90;;;7.75;;
23543;SDS011;11950;51.230;4.012;2023-10-31T08:28:18;10.45;;;7.57;;
23543;SDS011;11950;51.230;4.012;2023-10-31T08:30:45;12.63;;;8.23;;
23543;SDS011;11950;51.230;4.012;2023-10-31T08:33:12;12.63;;;8.82;;
23543;SDS011;11950;51.230;4.012;2023-10-31T08:35:39;12.38;;;8.52;;
23543;SDS011;11950;51.230;4.012;2023-10-31T08:38:07;12.43;;;8.57;;
23543;SDS011;11950;51.230;4.012;2023-10-31T08:40:33;13.85;;;8.75;;
23543;SDS011;11950;51.230;4.012;2023-10-31T08:42:59;12.88;;;9.15;;
23543;SDS011;11950;51.230;4.012;2023-10-31T08:45:26;13.43;;;9.35;;
23543;SDS011;11950;51.230;4.012;2023-10-31T08:47:52;16.67;;;8.98;;
23543;SDS011;11950;51.230;4.012;2023-10-31T08:50:18;15.75;;;9.18;;
23543;SDS011;11950;51.230;4.012;2023-10-31T08:52:45;15.40;;;9.88;;
23543;SDS011;11950;51.230;4.012;2023-10-31T08:55:11;14.77;;;9.60;;
23543;SDS011;11950;51.230;4.012;2023-10-31T08:57:37;15.20;;;9.85;;
23543;SDS011;11950;51.230;4.012;2023-10-31T09:00:04;14.32;;;9.15;;
23543;SDS011;11950;51.230;4.012;2023-10-31T09:02:30;14.13;;;9.57;;
23543;SDS011;11950;51.230;4.012;2023-10-31T09:04:57;13.63;;;9.82;;
23543;SDS011;11950;51.230;4.012;2023-10-31T09:07:23;14.40;;;10.65;;
23543;SDS011;11950;51.230;4.012;2023-10-31T09:09:49;16.05;;;9.75;;
23543;SDS011;11950;51.230;4.012;2023-10-31T09:12:15;14.07;;;8.77;;
23543;SDS011;11950;51.230;4.012;2023-10-31T09:14:41;12.65;;;9.30;;
23543;SDS011;11950;51.230;4.012;2023-10-31T09:17:08;14.38;;;8.93;;
23543;SDS011;11950;51.230;4.012;2023-10-31T09:19:34;13.35;;;9.40;;
23543;SDS011;11950;51.230;4.012;2023-10-31T09:22:00;15.50;;;9.45;;
23543;SDS011;11950;51.230;4.012;2023-10-31T09:24:26;19.33;;;9.60;;
23543;SDS011;11950;51.230;4.012;2023-10-31T09:26:52;15.50;;;10.15;;
23543;SDS011;11950;51.230;4.012;2023-10-31T09:29:19;20.92;;;11.13;;
23543;SDS011;11950;51.230;4.012;2023-10-31T09:31:45;21.33;;;12.25;;
23543;SDS011;11950;51.230;4.012;2023-10-31T09:34:13;17.65;;;11.90;;
23543;SDS011;11950;51.230;4.012;2023-10-31T09:36:39;18.80;;;12.05;;
23543;SDS011;11950;51.230;4.012;2023-10-31T09:39:06;19.55;;;11.23;;
23543;SDS011;11950;51.230;4.012;2023-10-31T09:41:32;17.10;;;11.27;;
23543;SDS011;11950;51.230;4.012;2023-10-31T09:43:58;18.27;;;11.77;;
23543;SDS011;11950;51.230;4.012;2023-10-31T09:46:25;15.55;;;11.18;;
23543;SDS011;11950;51.230;4.012;2023-10-31T09:48:53;18.02;;;10.82;;
23543;SDS011;11950;51.230;4.012;2023-10-31T09:51:19;20.15;;;11.10;;
23543;SDS011;11950;51.230;4.012;2023-10-31T09:53:46;19.70;;;11.75;;
23543;SDS011;11950;51.230;4.012;2023-10-31T09:56:14;17.63;;;10.88;;
23543;SDS011;11950;51.230;4.012;2023-10-31T09:58:40;18.90;;;11.27;;
23543;SDS011;11950;51.230;4.012;2023-10-31T10:01:07;14.68;;;9.90;;
23543;SDS011;11950;51.230;4.012;2023-10-31T10:03:34;16.48;;;9.63;;
23543;SDS011;11950;51.230;4.012;2023-10-31T10:06:01;16.60;;;10.40;;
23543;SDS011;11950;51.230;4.012;2023-10-31T10:08:28;15.05;;;10.20;;
23543;SDS011;11950;51.230;4.012;2023-10-31T10:10:54;17.33;;;10.40;;
23543;SDS011;11950;51.230;4.012;2023-10-31T10:13:21;18.55;;;11.23;;
23543;SDS011;11950;51.230;4.012;2023-10-31T10:15:48;19.83;;;11.40;;
23543;SDS011;11950;51.230;4.012;2023-10-31T10:18:27;17.58;;;10.70;;
23543;SDS011;11950;51.230;4.012;2023-10-31T10:20:59;19.35;;;11.23;;
23543;SDS011;11950;51.230;4.012;2023-10-31T10:23:26;19.33;;;10.80;;
23543;SDS011;11950;51.230;4.012;2023-10-31T10:25:53;19.77;;;11.13;;
23543;SDS011;11950;51.230;4.012;2023-10-31T10:28:21;19.70;;;11.13;;
23543;SDS011;11950;51.230;4.012;2023-10-31T10:30:50;18.38;;;10.57;;
23543;SDS011;11950;51.230;4.012;2023-10-31T10:33:17;17.33;;;10.75;;
23543;SDS011;11950;51.230;4.012;2023-10-31T10:35:44;16.67;;;10.32;;
23543;SDS011;11950;51.230;4.012;2023-10-31T10:38:11;15.88;;;9.82;;
23543;SDS011;11950;51.230;4.012;2023-10-31T10:40:40;16.70;;;9.77;;
23543;SDS011;11950;51.230;4.012;2023-10-31T10:43:21;16.92;;;10.43;;
23543;SDS011;11950;51.230;4.012;2023-10-31T10:45:53;17.25;;;10.32;;
23543;SDS011;11950;51.230;4.012;2023-10-31T10:48:23;14.00;;;9.23;;
23543;SDS011;11950;51.230;4.012;2023-10-31T10:51:06;14.03;;;9.37;;
23543;SDS011;11950;51.230;4.012;2023-10-31T10:53:50;16.60;;;9.20;;
23543;SDS011;11950;51.230;4.012;2023-10-31T10:56:25;16.63;;;9.23;;
23543;SDS011;11950;51.230;4.012;2023-10-31T10:58:57;16.33;;;9.57;;
23543;SDS011;11950;51.230;4.012;2023-10-31T11:01:30;16.40;;;8.75;;
23543;SDS011;11950;51.230;4.012;2023-10-31T11:03:58;12.98;;;8.18;;
23543;SDS011;11950;51.230;4.012;2023-10-31T11:06:25;13.15;;;7.72;;
23543;SDS011;11950;51.230;4.012;2023-10-31T11:08:52;11.52;;;6.93;;
23543;SDS011;11950;51.230;4.012;2023-10-31T11:11:21;12.13;;;7.03;;
23543;SDS011;11950;51.230;4.012;2023-10-31T11:13:49;11.20;;;7.13;;
23543;SDS011;11950;51.230;4.012;2023-10-31T11:16:22;12.48;;;6.55;;
23543;SDS011;11950;51.230;4.012;2023-10-31T11:18:54;14.02;;;7.78;;
23543;SDS011;11950;51.230;4.012;2023-10-31T11:21:24;16.35;;;8.98;;
23543;SDS011;11950;51.230;4.012;2023-10-31T11:23:57;16.70;;;9.10;;
23543;SDS011;11950;51.230;4.012;2023-10-31T11:26:28;16.45;;;9.85;;
23543;SDS011;11950;51.230;4.012;2023-10-31T11:29:02;22.77;;;10.80;;
23543;SDS011;11950;51.230;4.012;2023-10-31T11:31:30;20.67;;;11.02;;
23543;SDS011;11950;51.230;4.012;2023-10-31T11:33:58;23.92;;;12.55;;
23543;SDS011;11950;51.230;4.012;2023-10-31T11:36:32;24.75;;;12.80;;
23543;SDS011;11950;51.230;4.012;2023-10-31T11:39:11;25.95;;;12.57;;
23543;SDS011;11950;51.230;4.012;2023-10-31T11:41:45;26.83;;;13.43;;
23543;SDS011;11950;51.230;4.012;2023-10-31T11:44:16;23.15;;;11.60;;
23543;SDS011;11950;51.230;4.012;2023-10-31T11:46:43;25.58;;;12.02;;
23543;SDS011;11950;51.230;4.012;2023-10-31T11:49:13;24.73;;;12.07;;
23543;SDS011;11950;51.230;4.012;2023-10-31T11:51:39;24.75;;;12.02;;
23543;SDS011;11950;51.230;4.012;2023-10-31T11:54:06;26.05;;;12.45;;
23543;SDS011;11950;51.230;4.012;2023-10-31T11:56:34;28.73;;;12.57;;
23543;SDS011;11950;51.230;4.012;2023-10-31T11:59:02;21.83;;;11.55;;
23543;SDS011;11950;51.230;4.012;2023-10-31T12:01:29;23.45;;;11.85;;
23543;SDS011;11950;51.230;4.012;2023-10-31T12:03:56;22.30;;;11.50;;
23543;SDS011;11950;51.230;4.012;2023-10-31T12:06:22;21.23;;;10.48;;
23543;SDS011;11950;51.230;4.012;2023-10-31T12:08:49;22.30;;;11.38;;
23543;SDS011;11950;51.230;4.012;2023-10-31T12:11:16;22.23;;;10.27;;
23543;SDS011;11950;51.230;4.012;2023-10-31T12:13:54;18.67;;;10.30;;
23543;SDS011;11950;51.230;4.012;2023-10-31T12:16:29;16.50;;;9.18;;
23543;SDS011;11950;51.230;4.012;2023-10-31T12:18:57;17.38;;;8.60;;
23543;SDS011;11950;51.230;4.012;2023-10-31T12:21:35;19.63;;;9.27;;
23543;SDS011;11950;51.230;4.012;2023-10-31T12:26:34;15.65;;;8.07;;
23543;SDS011;11950;51.230;4.012;2023-10-31T12:29:22;15.98;;;8.57;;
23543;SDS011;11950;51.230;4.012;2023-10-31T12:31:51;19.75;;;8.60;;
23543;SDS011;11950;51.230;4.012;2023-10-31T12:34:22;17.23;;;8.18;;
23543;SDS011;11950;51.230;4.012;2023-10-31T12:36:53;13.53;;;7.33;;
23543;SDS011;11950;51.230;4.012;2023-10-31T12:39:21;12.27;;;6.43;;
23543;SDS011;11950;51.230;4.012;2023-10-31T12:41:50;12.75;;;7.28;;
23543;SDS011;11950;51.230;4.012;2023-10-31T12:44:17;14.85;;;6.85;;
23543;SDS011;11950;51.230;4.012;2023-10-31T12:46:50;14.95;;;7.60;;
23543;SDS011;11950;51.230;4.012;2023-10-31T12:49:18;14.38;;;6.93;;
23543;SDS011;11950;51.230;4.012;2023-10-31T12:51:58;15.48;;;7.80;;
23543;SDS011;11950;51.230;4.012;2023-10-31T12:54:36;12.02;;;7.18;;
23543;SDS011;11950;51.230;4.012;2023-10-31T12:57:03;11.88;;;6.50;;
23543;SDS011;11950;51.230;4.012;2023-10-31T12:59:33;10.07;;;7.13;;
23543;SDS011;11950;51.230;4.012;2023-10-31T13:02:02;9.63;;;6.38;;
23543;SDS011;11950;51.230;4.012;2023-10-31T13:04:29;12.52;;;6.70;;
23543;SDS011;11950;51.230;4.012;2023-10-31T13:07:03;12.18;;;7.68;;
23543;SDS011;11950;51.230;4.012;2023-10-31T13:09:31;11.93;;;6.97;;
23543;SDS011;11950;51.230;4.012;2023-10-31T13:12:01;11.50;;;6.82;;
23543;SDS011;11950;51.230;4.012;2023-10-31T13:14:29;11.77;;;7.28;;
23543;SDS011;11950;51.230;4.012;2023-10-31T13:16:55;13.82;;;7.07;;
23543;SDS011;11950;51.230;4.012;2023-10-31T13:19:22;14.65;;;6.93;;
23543;SDS011;11950;51.230;4.012;2023-10-31T13:21:48;16.27;;;7.18;;
23543;SDS011;11950;51.230;4.012;2023-10-31T13:24:15;11.85;;;6.80;;
23543;SDS011;11950;51.230;4.012;2023-10-31T13:26:41;13.40;;;7.65;;
23543;SDS011;11950;51.230;4.012;2023-10-31T13:29:10;10.30;;;6.85;;
23543;SDS011;11950;51.230;4.012;2023-10-31T13:31:39;10.80;;;6.93;;
23543;SDS011;11950;51.230;4.012;2023-10-31T13:34:07;10.73;;;6.90;;
23543;SDS011;11950;51.230;4.012;2023-10-31T13:36:34;10.52;;;7.10;;
23543;SDS011;11950;51.230;4.012;2023-10-31T13:39:03;10.10;;;6.55;;
23543;SDS011;11950;51.230;4.012;2023-10-31T13:41:29;13.93;;;6.90;;
23543;SDS011;11950;51.230;4.012;2023-10-31T13:43:56;12.75;;;7.57;;
23543;SDS011;11950;51.230;4.012;2023-10-31T13:46:22;11.05;;;6.55;;
23543;SDS011;11950;51.230;4.012;2023-10-31T13:48:49;14.88;;;7.47;;
23543;SDS011;11950;51.230;4.012;2023-10-31T13:51:16;9.95;;;6.88;;
23543;SDS011;11950;51.230;4.012;2023-10-31T13:53:42;11.82;;;6.45;;
23543;SDS011;11950;51.230;4.012;2023-10-31T13:56:09;13.13;;;7.22;;
23543;SDS011;11950;51.230;4.012;2023-10-31T13:58:35;11.05;;;6.97;;
23543;SDS011;11950;51.230;4.012;2023-10-31T14:01:02;12.27;;;6.85;;
23543;SDS011;11950;51.230;4.012;2023-10-31T14:03:29;9.30;;;6.47;;
23543;SDS011;11950;51.230;4.012;2023-10-31T14:05:55;10.82;;;6.10;;
23543;SDS011;11950;51.230;4.012;2023-10-31T14:08:22;11.07;;;6.88;;
23543;SDS011;11950;51.230;4.012;2023-10-31T14:10:48;8.38;;;5.45;;
23543;SDS011;11950;51.230;4.012;2023-10-31T14:13:15;10.65;;;6.10;;
23543;SDS011;11950;51.230;4.012;2023-10-31T14:15:42;13.50;;;6.20;;
23543;SDS011;11950;51.230;4.012;2023-10-31T14:18:08;6.43;;;5.28;;
23543;SDS011;11950;51.230;4.012;2023-10-31T14:20:35;6.28;;;4.90;;
23543;SDS011;11950;51.230;4.012;2023-10-31T14:23:01;8.68;;;4.32;;
23543;SDS011;11950;51.230;4.012;2023-10-31T14:25:27;7.25;;;4.00;;
23543;SDS011;11950;51.230;4.012;2023-10-31T14:27:53;5.28;;;3.78;;
23543;SDS011;11950;51.230;4.012;2023-10-31T14:30:20;3.75;;;3.28;;
23543;SDS011;11950;51.230;4.012;2023-10-31T14:32:46;6.03;;;4.13;;
23543;SDS011;11950;51.230;4.012;2023-10-31T14:35:12;7.82;;;3.85;;
23543;SDS011;11950;51.230;4.012;2023-10-31T14:37:40;7.10;;;3.45;;